createdAt,value
2022-11-15T00:02:25.568Z,12.40
2022-11-15T00:07:55.518Z,12.40
2022-11-15T00:13:16.677Z,12.40
2022-11-15T00:18:37.085Z,12.40
2022-11-15T00:23:57.548Z,12.40
2022-11-15T00:29:18.706Z,12.40
2022-11-15T00:34:39.598Z,12.40
2022-11-15T00:40:00.518Z,12.40
2022-11-15T00:45:21.447Z,12.50
2022-11-15T00:50:42.291Z,12.50
2022-11-15T00:56:03.427Z,12.50
2022-11-15T01:01:24.217Z,12.50
2022-11-15T01:06:45.278Z,12.50
2022-11-15T01:12:06.351Z,12.50
2022-11-15T01:17:27.172Z,12.50
2022-11-15T01:22:47.883Z,12.50
2022-11-15T01:28:09.104Z,12.50
2022-11-15T01:33:30.740Z,12.60
2022-11-15T01:38:56.319Z,12.60
2022-11-15T01:44:32.316Z,12.60
2022-11-15T01:50:03.525Z,12.60
2022-11-15T01:55:27.334Z,12.60
2022-11-15T02:00:49.091Z,12.60
2022-11-15T02:06:10.546Z,12.70
2022-11-15T02:11:31.927Z,12.70
2022-11-15T02:17:21.867Z,12.70
2022-11-15T02:22:48.430Z,12.70
2022-11-15T02:28:36.832Z,12.70
2022-11-15T02:34:09.391Z,12.80
2022-11-15T02:39:56.522Z,12.80
2022-11-15T02:45:31.361Z,12.80
2022-11-15T02:50:52.928Z,12.70
2022-11-15T02:56:13.965Z,12.80
2022-11-15T03:02:04.834Z,12.80
2022-11-15T03:08:02.050Z,12.80
2022-11-15T03:13:47.665Z,12.80
2022-11-15T03:19:18.308Z,12.80
2022-11-15T03:24:40.104Z,12.80
2022-11-15T03:30:05.210Z,12.80
2022-11-15T03:35:31.353Z,12.90
2022-11-15T03:40:56.831Z,13.00
2022-11-15T03:46:41.209Z,13.00
2022-11-15T03:52:04.915Z,12.90
2022-11-15T03:57:25.684Z,13.00
2022-11-15T04:02:46.775Z,13.00
2022-11-15T04:08:07.153Z,13.00
2022-11-15T04:13:27.563Z,13.10
2022-11-15T04:19:07.924Z,13.10
2022-11-15T04:24:28.646Z,13.10
2022-11-15T04:29:49.555Z,13.10
2022-11-15T04:35:10.327Z,13.10
2022-11-15T04:40:31.145Z,13.10
2022-11-15T04:45:51.792Z,13.10
2022-11-15T04:51:12.762Z,13.10
2022-11-15T04:56:33.106Z,13.10
2022-11-15T05:01:54.175Z,13.10
2022-11-15T05:07:14.825Z,13.10
2022-11-15T05:12:35.344Z,13.10
2022-11-15T05:18:00.665Z,13.10
2022-11-15T05:23:21.652Z,13.10
2022-11-15T05:28:42.250Z,13.10
2022-11-15T05:34:05.641Z,13.20
2022-11-15T05:39:27.107Z,13.20
2022-11-15T05:44:50.585Z,13.30
2022-11-15T05:50:17.508Z,13.30
2022-11-15T05:55:40.029Z,13.40
2022-11-15T06:01:01.907Z,13.40
2022-11-15T06:06:22.364Z,13.40
2022-11-15T06:11:43.553Z,13.40
2022-11-15T06:17:08.661Z,13.40
2022-11-15T06:22:32.106Z,13.50
2022-11-15T06:27:56.863Z,13.50
2022-11-15T06:33:17.970Z,13.40
2022-11-15T06:38:38.950Z,12.70
2022-11-15T06:43:59.782Z,12.20
2022-11-15T06:49:20.222Z,12.00
2022-11-15T06:54:40.722Z,11.90
2022-11-15T07:00:01.165Z,11.80
2022-11-15T07:05:21.665Z,11.80
2022-11-15T07:10:42.174Z,11.70
2022-11-15T07:16:07.958Z,11.70
2022-11-15T07:21:28.431Z,11.70
2022-11-15T07:26:48.942Z,11.80
2022-11-15T07:32:10.542Z,11.80
2022-11-15T07:37:31.343Z,11.80
2022-11-15T07:42:55.033Z,11.70
2022-11-15T07:48:15.913Z,11.80
2022-11-15T07:53:36.782Z,11.80
2022-11-15T07:58:58.570Z,11.80
2022-11-15T08:04:19.559Z,11.70
2022-11-15T08:09:40.146Z,11.70
2022-11-15T08:15:00.977Z,11.60
2022-11-15T08:20:21.426Z,11.60
2022-11-15T08:25:41.976Z,11.60
2022-11-15T08:31:03.273Z,11.60
2022-11-15T08:36:24.083Z,11.60
2022-11-15T08:41:45.723Z,11.70
2022-11-15T08:47:06.960Z,11.90
2022-11-15T08:52:28.007Z,11.80
2022-11-15T08:57:50.210Z,11.90
2022-11-15T09:03:10.597Z,12.10
2022-11-15T09:08:46.986Z,12.20
2022-11-15T09:14:08.883Z,12.30
2022-11-15T09:19:29.841Z,12.40
2022-11-15T09:24:50.481Z,12.20
2022-11-15T09:30:11.931Z,12.20
2022-11-15T09:35:32.917Z,12.10
2022-11-15T09:41:14.033Z,12.10
2022-11-15T09:47:26.162Z,12.20
2022-11-15T09:52:49.824Z,12.20
2022-11-15T09:58:05.035Z,12.20
2022-11-15T10:03:26.027Z,12.20
2022-11-15T10:08:46.813Z,12.20
2022-11-15T10:13:51.249Z,12.30
2022-11-15T10:19:11.445Z,12.50
2022-11-15T10:24:16.988Z,12.60
2022-11-15T10:29:26.859Z,12.60
2022-11-15T10:34:29.483Z,12.70
2022-11-15T10:39:31.831Z,12.90
2022-11-15T10:44:44.132Z,13.10
2022-11-15T10:49:56.079Z,13.30
2022-11-15T10:55:01.129Z,13.40
2022-11-15T11:00:06.384Z,13.40
2022-11-15T11:05:39.896Z,13.30
2022-11-15T11:11:02.780Z,13.40
2022-11-15T11:16:39.496Z,13.70
2022-11-15T11:21:52.214Z,13.90
2022-11-15T11:27:09.430Z,14.10
2022-11-15T11:32:32.511Z,14.00
2022-11-15T11:37:46.321Z,14.10
2022-11-15T11:43:06.483Z,14.30
2022-11-15T11:48:15.776Z,14.30
2022-11-15T11:53:47.820Z,14.60
2022-11-15T11:58:53.528Z,14.80
2022-11-15T12:04:19.496Z,14.80
2022-11-15T12:09:36.778Z,14.60
2022-11-15T12:15:00.748Z,14.10
2022-11-15T12:20:08.870Z,13.00
2022-11-15T12:25:52.238Z,12.00
2022-11-15T12:31:26.477Z,12.20
2022-11-15T12:36:47.499Z,12.60
2022-11-15T12:41:58.442Z,12.70
2022-11-15T12:47:05.915Z,12.90
2022-11-15T12:52:09.877Z,12.90
2022-11-15T12:57:17.828Z,13.20
2022-11-15T13:02:49.573Z,13.30
2022-11-15T13:07:58.818Z,13.40
2022-11-15T13:13:08.368Z,13.50
2022-11-15T13:18:39.576Z,13.40
2022-11-15T13:23:41.832Z,13.00
2022-11-15T13:28:47.160Z,13.20
2022-11-15T13:33:49.733Z,13.60
2022-11-15T13:39:00.531Z,13.80
2022-11-15T13:44:04.386Z,13.80
2022-11-15T13:49:13.296Z,14.00
2022-11-15T13:54:47.467Z,13.90
2022-11-15T13:59:56.905Z,14.10
2022-11-15T14:05:02.389Z,14.00
2022-11-15T14:10:32.252Z,14.10
2022-11-15T14:15:37.233Z,14.10
2022-11-15T14:20:40.711Z,13.70
2022-11-15T14:25:54.354Z,13.70
2022-11-15T14:30:59.017Z,13.60
2022-11-15T14:36:21.930Z,13.30
2022-11-15T14:41:27.373Z,13.30
2022-11-15T14:46:29.824Z,13.40
2022-11-15T14:51:33.951Z,13.30
2022-11-15T14:56:36.243Z,13.40
2022-11-15T15:01:38.450Z,13.30
2022-11-15T15:06:40.872Z,13.20
2022-11-15T15:11:43.408Z,13.20
2022-11-15T15:16:45.728Z,13.00
2022-11-15T15:21:47.867Z,12.60
2022-11-15T15:26:50.776Z,12.40
2022-11-15T15:31:53.102Z,12.60
2022-11-15T15:37:25.030Z,12.50
2022-11-15T15:42:27.411Z,12.50
2022-11-15T15:47:29.523Z,12.40
2022-11-15T15:52:31.970Z,12.30
2022-11-15T15:57:34.229Z,12.20
2022-11-15T16:02:40.405Z,12.20
2022-11-15T16:07:44.352Z,12.00
2022-11-15T16:12:46.818Z,11.90
2022-11-15T16:17:53.204Z,11.80
2022-11-15T16:22:55.610Z,11.70
2022-11-15T16:27:57.907Z,11.70
2022-11-15T16:33:01.274Z,11.60
2022-11-15T16:38:03.703Z,11.60
2022-11-15T16:43:06.602Z,11.60
2022-11-15T16:48:22.382Z,11.50
2022-11-15T16:53:25.838Z,11.40
2022-11-15T16:58:28.264Z,11.40
2022-11-15T17:03:32.082Z,11.30
2022-11-15T17:08:34.678Z,11.30
2022-11-15T17:13:37.136Z,11.20
2022-11-15T17:18:40.646Z,11.10
2022-11-15T17:23:43.803Z,11.20
2022-11-15T17:28:46.158Z,11.20
2022-11-15T17:33:48.382Z,11.20
2022-11-15T17:38:57.962Z,11.20
2022-11-15T17:44:03.630Z,11.10
2022-11-15T17:49:05.893Z,10.80
2022-11-15T17:54:11.148Z,10.40
2022-11-15T17:59:17.241Z,10.20
2022-11-15T18:04:28.131Z,10.10
2022-11-15T18:09:30.490Z,10.00
2022-11-15T18:14:32.542Z,9.90
2022-11-15T18:19:34.795Z,9.90
2022-11-15T18:24:38.656Z,9.80
2022-11-15T18:29:40.786Z,9.80
2022-11-15T18:34:42.855Z,9.80
2022-11-15T18:39:46.552Z,9.80
2022-11-15T18:44:51.851Z,9.70
2022-11-15T18:49:53.946Z,9.70
2022-11-15T18:54:56.141Z,9.60
2022-11-15T18:59:58.196Z,9.70
2022-11-15T19:05:00.277Z,9.70
2022-11-15T19:10:02.862Z,9.80
2022-11-15T19:15:10.054Z,9.80
2022-11-15T19:20:12.799Z,9.90
2022-11-15T19:25:14.926Z,10.00
2022-11-15T19:30:17.234Z,10.00
2022-11-15T19:35:19.325Z,9.90
2022-11-15T19:40:21.609Z,9.80
2022-11-15T19:45:23.694Z,9.70
2022-11-15T19:50:26.254Z,9.60
2022-11-15T19:55:29.048Z,9.60
2022-11-15T20:00:31.234Z,9.50
2022-11-15T20:05:33.496Z,9.40
2022-11-15T20:10:36.184Z,9.30
2022-11-15T20:15:38.434Z,9.30
2022-11-15T20:20:40.974Z,9.20
2022-11-15T20:25:47.272Z,9.20
2022-11-15T20:30:52.969Z,9.20
2022-11-15T20:35:55.282Z,9.20
2022-11-15T20:41:00.210Z,9.20
2022-11-15T20:46:02.834Z,9.20
2022-11-15T20:51:09.467Z,9.20
2022-11-15T20:56:14.026Z,9.30
2022-11-15T21:01:17.866Z,9.30
2022-11-15T21:06:21.122Z,9.40
2022-11-15T21:11:41.707Z,9.40
2022-11-15T21:16:44.027Z,9.50
2022-11-15T21:21:46.197Z,9.50
2022-11-15T21:26:48.415Z,9.50
2022-11-15T21:31:52.255Z,9.40
2022-11-15T21:36:54.488Z,9.40
2022-11-15T21:41:56.950Z,9.40
2022-11-15T21:46:59.087Z,9.40
2022-11-15T21:52:01.309Z,9.40
2022-11-15T21:57:03.556Z,9.40
2022-11-15T22:02:14.569Z,9.50
2022-11-15T22:07:16.822Z,9.40
2022-11-15T22:12:19.062Z,9.40
2022-11-15T22:17:21.191Z,9.40
2022-11-15T22:22:23.419Z,9.30
2022-11-15T22:27:25.546Z,9.30
2022-11-15T22:32:27.978Z,9.30
2022-11-15T22:37:30.116Z,9.20
2022-11-15T22:42:32.548Z,9.10
2022-11-15T22:47:34.761Z,9.10
2022-11-15T22:52:37.135Z,9.00
2022-11-15T22:57:39.353Z,9.00
2022-11-15T23:02:41.999Z,8.90
2022-11-15T23:07:45.553Z,8.90
2022-11-15T23:13:06.107Z,8.80
2022-11-15T23:18:08.208Z,8.80
2022-11-15T23:23:10.713Z,8.80
2022-11-15T23:28:13.057Z,8.70
2022-11-15T23:33:33.707Z,8.70
2022-11-15T23:38:37.518Z,8.70
2022-11-15T23:43:39.649Z,8.70
2022-11-15T23:48:41.919Z,8.70
2022-11-15T23:53:44.389Z,8.70
2022-11-15T23:58:47.426Z,8.70
